Time;durP1;ratioP1;P1;durP2;ratioP2;P2;SDS_P1;SDS_P2;PMS_P1;PMS_P2;Temp;Humidity;BMP_temperature;BMP_pressure;BME280_temperature;BME280_humidity;BME280_pressure;Samples;Min_cycle;Max_cycle;Signal;HPM_P1;HPM_P2
2022/12/24 00:02:19;;;;;;;39.08;21.70;;;5.90;99.90;;;;;;5064465;28;20048;-62
2022/12/24 00:04:45;;;;;;;39.10;22.40;;;6.30;99.90;;;;;;5065676;28;20115;-62
2022/12/24 00:07:11;;;;;;;38.63;21.52;;;6.30;99.90;;;;;;5065333;28;20052;-62
2022/12/24 00:09:37;;;;;;;40.60;22.98;;;5.80;99.90;;;;;;5064933;28;20041;-61
2022/12/24 00:12:03;;;;;;;38.78;23.25;;;6.10;99.90;;;;;;5065620;28;20041;-61
2022/12/24 00:14:29;;;;;;;38.22;21.95;;;5.90;99.90;;;;;;5064541;28;20056;-62
2022/12/24 00:16:54;;;;;;;38.63;23.00;;;5.90;99.90;;;;;;5065562;28;20278;-62
2022/12/24 00:19:20;;;;;;;39.72;22.35;;;5.80;99.90;;;;;;5064759;28;20162;-61
2022/12/24 00:21:46;;;;;;;40.75;22.38;;;6.00;99.90;;;;;;5061548;28;20052;-62
2022/12/24 00:24:12;;;;;;;37.38;23.00;;;5.90;99.90;;;;;;5051296;28;20052;-62
2022/12/24 00:26:37;;;;;;;39.67;23.45;;;6.30;99.90;;;;;;5046869;28;20740;-61
2022/12/24 00:29:03;;;;;;;37.55;22.67;;;5.80;99.90;;;;;;5063068;28;20052;-62
2022/12/24 00:31:29;;;;;;;39.05;21.88;;;6.20;99.90;;;;;;5068507;28;20036;-61
2022/12/24 00:33:54;;;;;;;37.42;21.80;;;6.30;99.90;;;;;;5068064;28;20526;-61
2022/12/24 00:36:20;;;;;;;36.58;22.10;;;5.80;99.90;;;;;;5069311;28;20041;-62
2022/12/24 00:38:46;;;;;;;39.00;21.77;;;6.10;99.90;;;;;;5069405;28;20048;-61
2022/12/24 00:41:27;;;;;;;40.15;22.40;;;5.90;99.90;;;;;;5069253;28;20055;-62
2022/12/24 00:44:00;;;;;;;35.85;21.77;;;5.80;99.90;;;;;;5069701;28;20071;-62
2022/12/24 00:46:27;;;;;;;39.10;22.48;;;5.90;99.90;;;;;;5069698;28;20044;-63
2022/12/24 00:48:53;;;;;;;35.78;21.00;;;6.10;99.90;;;;;;5066735;28;20040;-61
2022/12/24 00:51:20;;;;;;;38.65;21.30;;;5.90;99.90;;;;;;5069049;28;20106;-61
2022/12/24 00:53:46;;;;;;;38.17;21.98;;;5.90;99.90;;;;;;5068523;28;20612;-61
2022/12/24 00:56:12;;;;;;;36.55;21.67;;;5.90;99.90;;;;;;5068494;28;20098;-61
2022/12/24 00:58:38;;;;;;;36.10;22.13;;;6.40;99.90;;;;;;5067444;28;20040;-62
2022/12/24 01:01:04;;;;;;;35.60;21.65;;;6.20;99.90;;;;;;5068869;28;20040;-61
2022/12/24 01:03:36;;;;;;;36.70;21.90;;;6.10;99.90;;;;;;5067725;28;20048;-62
2022/12/24 01:06:07;;;;;;;40.58;21.98;;;6.20;99.90;;;;;;5068746;28;20051;-62
2022/12/24 01:08:33;;;;;;;35.88;20.98;;;6.30;99.90;;;;;;5067212;28;20053;-61
2022/12/24 01:11:00;;;;;;;36.35;22.23;;;6.40;99.90;;;;;;5068302;28;20132;-61
2022/12/24 01:13:25;;;;;;;38.20;21.45;;;5.90;99.90;;;;;;5068943;28;20061;-61
2022/12/24 01:15:51;;;;;;;36.47;20.88;;;6.00;99.90;;;;;;5068279;28;20426;-61
2022/12/24 01:18:17;;;;;;;33.85;19.52;;;6.00;99.90;;;;;;5067495;28;20051;-61
2022/12/24 01:20:43;;;;;;;34.42;21.08;;;6.00;99.90;;;;;;5064200;28;20045;-61
2022/12/24 01:23:09;;;;;;;35.17;20.83;;;5.90;99.90;;;;;;5057266;28;20466;-62
2022/12/24 01:25:37;;;;;;;37.25;21.23;;;5.90;99.90;;;;;;5048383;28;20212;-62
2022/12/24 01:28:03;;;;;;;38.35;20.23;;;6.30;99.90;;;;;;5046945;28;20056;-61
2022/12/24 01:30:28;;;;;;;37.97;21.20;;;6.10;99.90;;;;;;5047344;28;20037;-61
2022/12/24 01:32:54;;;;;;;35.67;20.15;;;5.90;99.90;;;;;;5047586;28;20049;-61
2022/12/24 01:35:20;;;;;;;33.28;20.42;;;6.00;99.90;;;;;;5047408;28;20208;-61
2022/12/24 01:37:46;;;;;;;36.22;20.63;;;5.80;99.90;;;;;;5048035;28;20076;-62
2022/12/24 01:46:06;;;;;;;34.95;21.55;;;5.90;99.90;;;;;;5057072;28;20169;-61
2022/12/24 01:48:41;;;;;;;34.97;21.17;;;5.90;99.90;;;;;;5067168;28;20072;-62
2022/12/24 01:51:13;;;;;;;32.55;20.65;;;5.90;99.90;;;;;;5067826;28;20499;-61
2022/12/24 01:53:40;;;;;;;36.58;20.92;;;5.90;99.90;;;;;;5067677;28;20434;-62
2022/12/24 01:56:08;;;;;;;33.25;19.88;;;6.30;99.90;;;;;;5067767;28;20428;-62
2022/12/24 01:58:36;;;;;;;34.15;21.52;;;6.30;99.90;;;;;;5067418;28;20046;-62
2022/12/24 02:01:02;;;;;;;36.58;20.77;;;6.20;99.90;;;;;;5144353;22;20054;-63
2022/12/24 02:03:28;;;;;;;34.88;21.17;;;5.90;99.90;;;;;;5015319;28;20424;-62
2022/12/24 02:05:56;;;;;;;40.53;20.55;;;6.20;99.90;;;;;;5021738;28;20057;-62
2022/12/24 02:08:22;;;;;;;36.53;21.02;;;6.30;99.90;;;;;;5013178;28;20115;-61
2022/12/24 02:10:48;;;;;;;33.45;21.75;;;6.00;99.90;;;;;;5007320;28;20512;-61
2022/12/24 02:13:19;;;;;;;40.70;21.58;;;6.30;99.90;;;;;;5006385;28;20046;-61
2022/12/24 02:16:03;;;;;;;41.42;22.73;;;6.10;99.90;;;;;;5006283;28;20145;-61
2022/12/24 02:18:44;;;;;;;39.57;22.73;;;6.00;99.90;;;;;;5005980;28;20050;-61
2022/12/24 02:21:15;;;;;;;40.20;23.02;;;6.30;99.90;;;;;;5010832;28;20312;-61
2022/12/24 02:23:49;;;;;;;39.90;23.77;;;6.30;99.90;;;;;;5012962;28;20104;-62
2022/12/24 02:26:59;;;;;;;41.53;24.70;;;6.30;99.90;;;;;;5006430;28;20137;-61
2022/12/24 02:29:43;;;;;;;45.20;23.73;;;5.90;99.90;;;;;;5007058;28;20046;-61
2022/12/24 02:32:20;;;;;;;42.67;24.20;;;6.10;99.90;;;;;;5021334;28;20057;-62
2022/12/24 02:34:56;;;;;;;44.22;24.48;;;6.30;99.90;;;;;;5006597;28;20359;-62
2022/12/24 02:37:31;;;;;;;40.20;23.38;;;6.00;99.90;;;;;;5006990;28;20050;-62
2022/12/24 02:40:17;;;;;;;44.97;24.20;;;5.90;99.90;;;;;;5006284;28;20535;-62
2022/12/24 02:42:50;;;;;;;46.50;23.67;;;6.00;99.90;;;;;;5007190;28;20068;-61
2022/12/24 02:45:19;;;;;;;42.50;23.10;;;6.30;99.90;;;;;;5005725;28;20038;-62
2022/12/24 02:47:46;;;;;;;43.95;24.15;;;5.90;99.90;;;;;;5006484;28;20526;-62
2022/12/24 02:50:14;;;;;;;44.13;23.90;;;6.20;99.90;;;;;;5005249;28;20038;-61
2022/12/24 02:52:42;;;;;;;46.40;24.98;;;6.30;99.90;;;;;;5006096;28;20049;-62
2022/12/24 02:55:23;;;;;;;45.40;24.17;;;6.00;99.90;;;;;;5006298;28;20062;-62
2022/12/24 02:58:07;;;;;;;47.65;24.98;;;6.20;99.90;;;;;;5006964;28;20042;-62
2022/12/24 03:00:56;;;;;;;46.35;25.15;;;6.20;99.90;;;;;;5007300;28;20188;-61
2022/12/24 03:03:24;;;;;;;45.40;24.33;;;6.00;99.90;;;;;;5005568;28;20065;-62
2022/12/24 03:06:35;;;;;;;49.58;26.23;;;6.40;99.90;;;;;;5022197;28;20129;-61
2022/12/24 03:09:12;;;;;;;47.55;25.15;;;6.10;99.90;;;;;;5001012;28;20416;-62
2022/12/24 03:11:43;;;;;;;44.58;24.17;;;6.20;99.90;;;;;;4988515;28;20054;-62
2022/12/24 03:14:09;;;;;;;46.58;24.17;;;6.10;99.90;;;;;;5006904;28;20046;-61
2022/12/24 03:16:35;;;;;;;44.03;24.15;;;6.60;99.90;;;;;;5006912;28;20044;-62
2022/12/24 03:19:02;;;;;;;46.75;24.50;;;6.20;99.90;;;;;;5006760;28;20049;-61
2022/12/24 03:21:34;;;;;;;48.00;26.15;;;6.00;99.90;;;;;;5012277;28;20049;-61
2022/12/24 03:24:00;;;;;;;51.38;25.95;;;6.10;99.90;;;;;;5008872;28;20100;-61
2022/12/24 03:26:29;;;;;;;49.20;26.25;;;6.40;99.90;;;;;;5006262;28;20049;-61
2022/12/24 03:28:55;;;;;;;55.05;28.17;;;6.50;99.90;;;;;;5005434;28;20049;-61
2022/12/24 03:31:20;;;;;;;59.90;31.08;;;6.50;99.90;;;;;;5006147;28;20034;-61
2022/12/24 03:33:46;;;;;;;59.47;31.77;;;6.20;99.90;;;;;;5005655;28;20133;-62
2022/12/24 03:36:13;;;;;;;60.33;31.77;;;6.70;99.90;;;;;;5006075;28;20046;-61
2022/12/24 03:38:38;;;;;;;62.78;31.65;;;6.70;99.90;;;;;;5005410;28;20084;-62
2022/12/24 03:41:05;;;;;;;60.80;31.48;;;6.40;99.90;;;;;;5007009;28;20077;-61
2022/12/24 03:43:30;;;;;;;62.88;32.70;;;6.60;99.90;;;;;;5005080;28;20046;-61
2022/12/24 03:45:56;;;;;;;61.22;31.92;;;6.60;99.90;;;;;;5006434;28;20169;-61
2022/12/24 03:48:22;;;;;;;57.78;30.30;;;7.00;99.90;;;;;;5003780;28;20049;-61
2022/12/24 03:50:48;;;;;;;60.88;30.63;;;6.80;99.90;;;;;;5006069;28;20053;-61
2022/12/24 03:53:13;;;;;;;52.25;26.73;;;6.50;99.90;;;;;;5004884;28;20492;-61
2022/12/24 03:55:39;;;;;;;48.00;26.02;;;6.60;99.90;;;;;;5007111;28;20052;-61
2022/12/24 03:58:05;;;;;;;45.17;25.00;;;6.90;99.90;;;;;;5010372;28;20046;-61
2022/12/24 04:00:31;;;;;;;40.40;23.35;;;6.80;99.90;;;;;;5009705;28;20049;-61
2022/12/24 04:02:56;;;;;;;44.72;24.00;;;6.80;99.90;;;;;;5008981;28;20539;-61
2022/12/24 04:05:22;;;;;;;45.80;22.15;;;7.00;99.90;;;;;;5009847;28;20049;-61
2022/12/24 04:07:47;;;;;;;35.38;21.23;;;7.30;99.90;;;;;;5010104;28;20057;-61
2022/12/24 04:10:14;;;;;;;35.85;20.27;;;7.00;99.90;;;;;;5009526;28;20461;-61
2022/12/24 04:12:40;;;;;;;31.55;19.55;;;7.30;99.90;;;;;;5008512;28;20384;-61
2022/12/24 04:15:09;;;;;;;35.47;19.27;;;7.50;99.90;;;;;;5009481;28;20046;-61
2022/12/24 04:17:34;;;;;;;34.88;17.60;;;7.30;99.90;;;;;;5008443;28;20042;-61
2022/12/24 04:20:00;;;;;;;31.02;16.75;;;7.70;99.90;;;;;;5009963;28;20101;-61
2022/12/24 04:22:26;;;;;;;34.83;18.27;;;7.80;99.90;;;;;;5020232;28;20037;-61
2022/12/24 04:24:51;;;;;;;30.92;17.48;;;7.30;99.90;;;;;;5009034;28;20037;-61
2022/12/24 04:27:17;;;;;;;31.05;16.52;;;7.80;99.90;;;;;;4991992;28;20129;-61
2022/12/24 04:29:43;;;;;;;31.42;14.80;;;7.40;99.90;;;;;;5009346;28;20038;-61
2022/12/24 04:32:09;;;;;;;35.15;15.68;;;7.90;99.90;;;;;;5009068;28;20049;-61
2022/12/24 04:34:35;;;;;;;28.38;15.40;;;7.40;99.90;;;;;;5007944;28;20338;-61
2022/12/24 04:37:01;;;;;;;32.03;14.73;;;7.40;99.90;;;;;;5008900;28;20045;-61
2022/12/24 04:39:26;;;;;;;29.30;14.27;;;7.60;99.90;;;;;;5009157;28;20507;-61
2022/12/24 04:41:52;;;;;;;29.00;14.73;;;7.90;99.90;;;;;;5009120;28;20042;-61
2022/12/24 04:44:18;;;;;;;28.05;12.50;;;7.80;99.90;;;;;;5009574;28;20074;-61
2022/12/24 04:46:43;;;;;;;32.05;14.48;;;7.90;99.90;;;;;;5008126;28;20034;-61
2022/12/24 04:49:09;;;;;;;33.17;14.65;;;7.90;99.90;;;;;;5009074;28;20042;-61
2022/12/24 04:51:35;;;;;;;37.40;15.73;;;7.50;99.90;;;;;;5007077;28;20077;-61
2022/12/24 04:54:01;;;;;;;32.22;12.77;;;7.80;99.90;;;;;;5008907;28;20077;-62
2022/12/24 04:56:29;;;;;;;24.45;8.60;;;7.90;99.90;;;;;;5008699;28;20054;-61
2022/12/24 04:58:55;;;;;;;34.35;9.27;;;7.60;99.90;;;;;;5008715;28;20099;-61
2022/12/24 05:01:24;;;;;;;39.67;8.27;;;7.60;99.90;;;;;;5006498;28;20084;-61
2022/12/24 05:03:51;;;;;;;35.05;7.82;;;8.10;99.90;;;;;;5008396;28;20452;-61
2022/12/24 05:06:23;;;;;;;30.15;6.70;;;7.70;99.90;;;;;;5008428;28;20053;-61
2022/12/24 05:08:49;;;;;;;38.83;7.82;;;7.90;99.90;;;;;;5008290;28;20388;-61
2022/12/24 05:11:15;;;;;;;34.00;6.70;;;8.20;99.90;;;;;;5008849;28;20049;-61
2022/12/24 05:13:44;;;;;;;32.65;6.10;;;8.10;99.90;;;;;;5008930;28;20083;-61
2022/12/24 05:16:10;;;;;;;34.17;6.43;;;7.70;99.90;;;;;;5007977;28;20478;-61
2022/12/24 05:18:37;;;;;;;44.22;6.18;;;7.90;99.90;;;;;;5007397;28;20103;-61
2022/12/24 05:21:06;;;;;;;37.50;6.28;;;7.60;99.90;;;;;;5011082;28;20243;-61
2022/12/24 05:26:22;;;;;;;41.28;7.47;;;7.80;99.90;;;;;;5008751;28;20084;-61
2022/12/24 05:28:55;;;;;;;36.97;5.38;;;7.70;99.90;;;;;;5008068;28;20603;-61
2022/12/24 05:31:22;;;;;;;41.00;6.47;;;7.80;99.90;;;;;;5007678;28;20042;-61
2022/12/24 05:33:48;;;;;;;38.70;6.32;;;7.70;99.90;;;;;;5007174;28;20126;-60
2022/12/24 05:36:15;;;;;;;36.67;6.50;;;7.60;99.90;;;;;;5008514;28;20076;-61
2022/12/24 05:38:41;;;;;;;33.40;6.57;;;7.90;99.90;;;;;;5006461;28;20111;-61
2022/12/24 05:41:08;;;;;;;35.58;6.10;;;8.20;99.90;;;;;;5007790;28;20048;-61
2022/12/24 05:43:34;;;;;;;39.65;6.32;;;8.10;99.90;;;;;;5022463;28;20100;-61
2022/12/24 05:46:02;;;;;;;38.88;6.13;;;7.60;99.90;;;;;;5007803;28;20610;-61
2022/12/24 05:48:28;;;;;;;40.83;6.45;;;8.10;99.90;;;;;;5005750;28;20186;-61
2022/12/24 05:50:54;;;;;;;33.88;6.13;;;8.10;99.90;;;;;;5007258;28;20054;-61
2022/12/24 05:53:21;;;;;;;42.95;6.47;;;7.70;99.90;;;;;;5007012;28;20042;-61
2022/12/24 05:55:47;;;;;;;32.13;5.55;;;8.00;99.90;;;;;;5006141;28;20073;-61
2022/12/24 05:58:13;;;;;;;32.58;6.57;;;7.70;99.90;;;;;;5007507;28;20124;-61
2022/12/24 06:00:39;;;;;;;35.17;6.32;;;7.80;99.90;;;;;;5007300;28;20125;-61
2022/12/24 06:03:05;;;;;;;40.40;6.78;;;7.90;99.90;;;;;;5006664;28;20185;-60
2022/12/24 06:05:30;;;;;;;41.83;6.97;;;7.70;99.90;;;;;;5007329;28;20120;-60
2022/12/24 06:07:56;;;;;;;42.60;7.25;;;7.70;99.90;;;;;;5007774;28;20038;-61
2022/12/24 06:10:22;;;;;;;31.40;5.78;;;7.80;99.90;;;;;;5007280;28;20053;-61
2022/12/24 06:12:47;;;;;;;37.45;6.53;;;7.70;99.90;;;;;;5006867;28;20061;-61
2022/12/24 06:15:13;;;;;;;41.40;6.97;;;8.00;99.90;;;;;;5007479;28;20053;-61
2022/12/24 06:17:39;;;;;;;39.50;6.15;;;7.60;99.90;;;;;;5006469;28;20042;-61
2022/12/24 06:20:05;;;;;;;34.97;5.75;;;8.10;99.90;;;;;;5006330;28;20496;-61
2022/12/24 06:22:31;;;;;;;45.00;7.70;;;8.20;99.90;;;;;;5016875;28;20048;-61
2022/12/24 06:24:57;;;;;;;40.90;7.18;;;7.70;99.90;;;;;;5006620;28;20505;-61
2022/12/24 06:27:22;;;;;;;42.22;6.90;;;7.70;99.90;;;;;;5006805;28;20046;-61
2022/12/24 06:29:48;;;;;;;40.97;6.32;;;8.10;99.90;;;;;;5007327;28;20044;-61
2022/12/24 06:32:14;;;;;;;41.63;7.10;;;8.10;99.90;;;;;;5021591;28;20056;-61
2022/12/24 06:34:39;;;;;;;40.75;7.18;;;7.80;99.90;;;;;;5006559;28;20077;-60
2022/12/24 06:37:05;;;;;;;49.30;8.25;;;7.70;99.90;;;;;;5006630;28;20038;-61
2022/12/24 06:39:31;;;;;;;35.95;5.38;;;8.10;99.90;;;;;;5005877;28;20038;-61
2022/12/24 06:41:56;;;;;;;55.13;7.40;;;7.90;99.90;;;;;;5006006;28;20071;-61
2022/12/24 06:44:22;;;;;;;43.15;7.45;;;8.00;99.90;;;;;;5006677;28;20443;-61
2022/12/24 06:46:48;;;;;;;49.33;9.93;;;7.90;99.90;;;;;;5005872;28;20049;-62
2022/12/24 06:49:13;;;;;;;47.63;14.38;;;7.90;99.90;;;;;;5006717;28;20049;-60
2022/12/24 06:51:40;;;;;;;45.03;16.80;;;8.30;99.90;;;;;;5006655;28;20424;-61
2022/12/24 06:54:06;;;;;;;76.78;27.95;;;8.10;99.90;;;;;;5006193;28;20050;-61
2022/12/24 06:56:31;;;;;;;63.65;28.58;;;7.90;99.90;;;;;;5005215;28;20041;-61
2022/12/24 06:58:57;;;;;;;61.05;22.08;;;8.30;99.90;;;;;;5005974;28;20121;-61
2022/12/24 07:01:23;;;;;;;72.75;23.08;;;8.00;99.90;;;;;;5005118;28;20714;-61
2022/12/24 07:03:49;;;;;;;67.65;22.60;;;8.40;99.90;;;;;;5005006;28;20049;-62
2022/12/24 07:06:26;;;;;;;73.15;23.02;;;7.90;99.90;;;;;;5007098;28;20065;-61
2022/12/24 07:08:53;;;;;;;66.50;18.25;;;7.80;99.90;;;;;;5006772;28;20072;-61
2022/12/24 07:11:19;;;;;;;56.92;17.15;;;8.00;99.90;;;;;;5006376;28;20065;-61
2022/12/24 07:13:46;;;;;;;48.20;15.80;;;8.20;99.90;;;;;;5007180;28;20081;-61
2022/12/24 07:16:11;;;;;;;54.05;15.93;;;7.90;99.90;;;;;;5006186;28;20128;-62
2022/12/24 07:18:37;;;;;;;56.33;17.10;;;8.20;99.90;;;;;;5006828;28;20184;-61
2022/12/24 07:21:06;;;;;;;63.10;19.58;;;7.90;99.90;;;;;;5009737;28;20054;-61
2022/12/24 07:23:32;;;;;;;60.47;18.98;;;8.10;99.90;;;;;;5014010;28;20057;-61
2022/12/24 07:26:01;;;;;;;55.42;20.58;;;7.90;99.90;;;;;;5006769;28;20396;-61
2022/12/24 07:28:27;;;;;;;55.10;20.13;;;7.90;99.90;;;;;;5011103;28;20038;-61
2022/12/24 07:30:53;;;;;;;64.10;22.40;;;8.00;99.90;;;;;;5011188;28;20060;-63
2022/12/24 07:33:18;;;;;;;69.30;25.38;;;8.50;99.90;;;;;;5010668;28;20049;-62
2022/12/24 07:35:44;;;;;;;71.10;25.00;;;8.00;99.90;;;;;;5009740;28;20042;-61
2022/12/24 07:38:10;;;;;;;56.80;20.70;;;8.40;99.90;;;;;;5010215;28;20046;-61
2022/12/24 07:40:35;;;;;;;46.80;13.68;;;7.90;99.90;;;;;;5010189;28;20586;-62
2022/12/24 07:43:01;;;;;;;45.65;12.20;;;8.30;99.90;;;;;;5010926;28;20057;-61
2022/12/24 07:45:27;;;;;;;49.17;13.25;;;8.40;99.90;;;;;;5009911;28;20172;-60
2022/12/24 07:47:52;;;;;;;41.17;11.18;;;8.10;99.90;;;;;;5009369;28;20404;-61
2022/12/24 07:50:18;;;;;;;52.28;12.75;;;8.40;99.90;;;;;;5009065;28;20074;-62
2022/12/24 07:52:44;;;;;;;43.45;12.65;;;8.20;99.90;;;;;;5009582;28;20143;-61
2022/12/24 07:55:10;;;;;;;45.83;15.82;;;8.20;99.90;;;;;;5009712;28;20459;-59
2022/12/24 07:57:35;;;;;;;51.60;13.45;;;8.10;99.90;;;;;;5009517;28;20038;-60
2022/12/24 08:00:01;;;;;;;36.95;12.02;;;8.00;99.90;;;;;;5017414;28;20124;-60
2022/12/24 08:02:27;;;;;;;59.40;14.45;;;8.20;99.90;;;;;;5028496;28;20056;-60
2022/12/24 08:04:52;;;;;;;64.32;15.68;;;8.10;99.90;;;;;;5029425;28;20384;-60
2022/12/24 08:07:18;;;;;;;51.00;14.52;;;8.40;99.90;;;;;;5029351;28;20042;-60
2022/12/24 08:09:45;;;;;;;63.80;16.30;;;7.90;99.90;;;;;;5029283;28;20128;-59
2022/12/24 08:12:10;;;;;;;59.00;16.65;;;8.30;99.90;;;;;;5028887;28;20050;-59
2022/12/24 08:14:36;;;;;;;68.47;19.58;;;8.20;99.90;;;;;;5029177;28;20150;-59
2022/12/24 08:17:02;;;;;;;57.30;18.63;;;8.20;99.90;;;;;;5028467;28;20064;-60
2022/12/24 08:19:28;;;;;;;57.83;20.35;;;8.20;99.90;;;;;;5013763;28;20050;-59
2022/12/24 08:21:53;;;;;;;40.58;13.75;;;8.20;99.90;;;;;;5014658;28;20367;-60
2022/12/24 08:24:19;;;;;;;66.30;19.77;;;7.70;99.90;;;;;;5028468;28;20053;-59
2022/12/24 08:26:45;;;;;;;54.40;21.00;;;8.20;99.90;;;;;;5028593;28;20080;-59
2022/12/24 08:29:10;;;;;;;67.80;22.15;;;7.70;99.90;;;;;;5021354;28;20096;-60
2022/12/24 08:31:36;;;;;;;70.53;24.77;;;7.70;99.90;;;;;;5026760;28;20037;-59
2022/12/24 08:34:06;;;;;;;67.60;25.67;;;7.80;99.90;;;;;;5027617;28;20128;-60
2022/12/24 08:36:33;;;;;;;43.72;18.80;;;7.90;99.90;;;;;;5029485;28;20049;-59
2022/12/24 08:39:02;;;;;;;62.85;24.67;;;8.20;99.90;;;;;;5029232;28;20643;-59
2022/12/24 08:41:29;;;;;;;55.20;22.85;;;8.10;99.90;;;;;;5027111;28;20052;-60
2022/12/24 08:43:54;;;;;;;65.65;24.10;;;8.40;99.90;;;;;;5029169;28;20045;-60
2022/12/24 08:46:20;;;;;;;68.70;22.20;;;8.40;99.90;;;;;;5028804;28;20041;-59
2022/12/24 08:48:46;;;;;;;53.97;19.00;;;8.50;99.90;;;;;;5028874;28;20500;-60
2022/12/24 08:51:12;;;;;;;53.75;17.08;;;8.30;99.90;;;;;;5028427;28;20038;-60
2022/12/24 08:53:38;;;;;;;50.42;18.00;;;8.30;99.90;;;;;;5026829;28;20057;-60
2022/12/24 08:56:06;;;;;;;55.00;18.77;;;8.30;99.90;;;;;;5028081;28;20076;-60
2022/12/24 08:58:32;;;;;;;45.80;14.68;;;8.60;99.90;;;;;;5027877;28;20045;-59
2022/12/24 09:00:59;;;;;;;38.90;11.63;;;8.50;99.90;;;;;;5027562;28;20136;-60
2022/12/24 09:03:25;;;;;;;42.72;9.07;;;8.60;99.90;;;;;;5028730;28;20045;-61
2022/12/24 09:05:52;;;;;;;41.63;8.27;;;8.60;99.90;;;;;;5027997;28;20056;-60
2022/12/24 09:08:18;;;;;;;29.40;7.38;;;8.70;99.90;;;;;;5029151;28;20038;-59
2022/12/24 09:10:44;;;;;;;42.00;8.85;;;8.40;99.90;;;;;;5028912;28;20045;-59
2022/12/24 09:13:10;;;;;;;45.88;9.63;;;8.30;99.90;;;;;;5027679;28;20625;-59
2022/12/24 09:15:35;;;;;;;46.35;10.48;;;8.60;99.90;;;;;;5027965;28;20056;-61
2022/12/24 09:18:01;;;;;;;39.20;9.57;;;8.70;99.90;;;;;;5027890;28;20053;-60
2022/12/24 09:20:27;;;;;;;44.97;9.32;;;8.20;99.90;;;;;;5026588;28;20046;-59
2022/12/24 09:22:53;;;;;;;43.63;10.90;;;8.70;99.90;;;;;;5032804;28;20041;-59
2022/12/24 09:25:18;;;;;;;52.85;13.82;;;8.60;99.90;;;;;;5008592;28;20058;-59
2022/12/24 09:27:44;;;;;;;52.65;15.38;;;8.40;99.90;;;;;;5008656;28;20046;-59
2022/12/24 09:30:10;;;;;;;54.60;20.15;;;8.50;99.90;;;;;;5008349;28;20650;-60
2022/12/24 09:32:36;;;;;;;49.88;16.73;;;8.40;99.90;;;;;;5026343;28;20073;-59
2022/12/24 09:35:02;;;;;;;60.33;17.08;;;8.40;99.90;;;;;;5027772;28;20611;-59
2022/12/24 09:37:27;;;;;;;47.25;10.98;;;8.70;99.90;;;;;;5028364;28;20091;-59
2022/12/24 09:39:53;;;;;;;42.70;9.95;;;8.30;99.90;;;;;;5027935;28;20045;-60
2022/12/24 09:42:24;;;;;;;34.70;7.93;;;8.60;99.90;;;;;;5027455;28;20120;-61
2022/12/24 09:45:25;;;;;;;38.20;8.07;;;9.00;99.90;;;;;;5026896;28;20049;-60
2022/12/24 09:47:57;;;;;;;33.75;6.95;;;9.00;99.90;;;;;;5016040;28;20840;-59
2022/12/24 09:50:48;;;;;;;33.33;7.43;;;9.20;99.90;;;;;;5015981;28;20045;-60
2022/12/24 09:54:02;;;;;;;46.45;9.05;;;9.50;99.90;;;;;;5009683;28;20042;-59
2022/12/24 09:56:39;;;;;;;29.90;6.28;;;9.50;99.90;;;;;;4947176;29;20043;-59
2022/12/24 09:59:13;;;;;;;26.35;4.95;;;9.20;99.90;;;;;;5000380;28;20085;-59
2022/12/24 10:01:38;;;;;;;39.65;7.63;;;9.30;99.90;;;;;;5006958;28;20452;-60
2022/12/24 10:04:13;;;;;;;40.88;7.18;;;8.90;99.90;;;;;;5007928;28;20050;-60
2022/12/24 10:07:04;;;;;;;32.78;7.00;;;9.00;99.90;;;;;;5007721;28;20046;-60
2022/12/24 10:09:35;;;;;;;37.38;8.48;;;8.80;99.90;;;;;;5007693;28;20050;-60
2022/12/24 10:12:35;;;;;;;29.38;7.72;;;9.20;99.90;;;;;;5008175;28;20392;-60
2022/12/24 10:15:20;;;;;;;44.65;9.93;;;8.80;99.90;;;;;;5007637;28;20100;-60
2022/12/24 10:17:51;;;;;;;;;;;9.20;99.90;;;;;;5007595;28;20117;-60
2022/12/24 10:20:29;;;;;;;44.33;13.13;;;8.80;99.90;;;;;;5009032;28;19953;-60
2022/12/24 10:23:20;;;;;;;39.42;12.23;;;8.80;99.90;;;;;;5014782;28;20733;-59
2022/12/24 10:25:51;;;;;;;53.03;13.10;;;9.20;99.90;;;;;;5026844;28;20483;-59
2022/12/24 10:28:22;;;;;;;34.60;11.27;;;8.90;99.90;;;;;;5027259;28;20402;-61
2022/12/24 10:30:59;;;;;;;37.95;10.80;;;9.00;99.90;;;;;;5025493;28;20049;-59
2022/12/24 10:33:37;;;;;;;41.85;10.25;;;9.30;99.90;;;;;;5027491;28;20041;-60
2022/12/24 10:36:04;;;;;;;37.00;11.95;;;8.90;99.90;;;;;;5026302;28;20638;-59
2022/12/24 10:38:31;;;;;;;42.17;13.82;;;9.40;99.90;;;;;;5026886;28;20052;-61
2022/12/24 10:40:59;;;;;;;30.45;10.80;;;9.50;99.90;;;;;;5027157;28;20415;-59
2022/12/24 10:43:27;;;;;;;45.00;17.38;;;9.20;99.90;;;;;;5026759;28;20041;-59
2022/12/24 10:46:00;;;;;;;50.15;21.55;;;9.30;99.90;;;;;;5024742;28;20060;-59
2022/12/24 10:48:50;;;;;;;50.28;20.55;;;9.30;99.90;;;;;;5027367;28;20049;-59
2022/12/24 10:51:50;;;;;;;49.05;19.55;;;9.40;99.90;;;;;;5026982;28;20049;-59
2022/12/24 10:54:22;;;;;;;50.75;19.48;;;9.80;99.90;;;;;;5026400;28;20057;-60
2022/12/24 10:56:51;;;;;;;42.58;20.33;;;9.70;99.90;;;;;;5026627;28;20758;-59
2022/12/24 10:59:35;;;;;;;62.50;30.05;;;9.60;99.90;;;;;;5025842;28;20397;-58
2022/12/24 11:02:01;;;;;;;49.95;22.08;;;9.60;99.90;;;;;;5025549;28;20128;-60
2022/12/24 11:04:29;;;;;;;36.65;13.68;;;9.60;99.90;;;;;;5026373;28;20678;-58
2022/12/24 11:06:59;;;;;;;48.28;15.15;;;9.20;99.90;;;;;;5026748;28;20116;-59
2022/12/24 11:09:31;;;;;;;28.42;9.95;;;9.30;99.90;;;;;;5025258;28;20406;-57
2022/12/24 11:11:59;;;;;;;39.67;14.70;;;9.50;99.90;;;;;;5026183;28;20064;-58
2022/12/24 11:14:31;;;;;;;39.47;16.63;;;9.40;99.90;;;;;;5026633;28;20049;-59
2022/12/24 11:16:58;;;;;;;34.43;14.23;;;9.60;99.90;;;;;;5025774;28;20049;-58
2022/12/24 11:19:34;;;;;;;30.73;11.65;;;9.30;99.90;;;;;;5026002;28;20045;-58
2022/12/24 11:22:29;;;;;;;25.40;7.38;;;9.40;99.90;;;;;;5019064;28;20054;-59
2022/12/24 11:25:00;;;;;;;18.90;6.40;;;9.30;99.90;;;;;;5006941;28;20046;-59
2022/12/24 11:27:37;;;;;;;21.70;5.68;;;9.40;99.90;;;;;;5005159;28;20058;-58
2022/12/24 11:30:15;;;;;;;34.58;8.98;;;9.40;99.90;;;;;;5004901;28;20566;-59
2022/12/24 11:32:42;;;;;;;27.15;9.48;;;9.70;99.90;;;;;;5006762;28;20046;-60
2022/12/24 11:35:17;;;;;;;41.70;16.00;;;9.40;99.90;;;;;;5006348;28;20377;-60
2022/12/24 11:37:43;;;;;;;25.92;10.82;;;9.60;99.90;;;;;;5006779;28;20057;-60
2022/12/24 11:40:21;;;;;;;29.27;10.18;;;9.70;99.90;;;;;;5006375;28;20041;-61
2022/12/24 11:42:52;;;;;;;30.92;10.57;;;9.40;99.90;;;;;;5006249;28;20038;-60
2022/12/24 11:45:35;;;;;;;36.83;11.18;;;9.60;99.90;;;;;;5005876;28;20046;-60
2022/12/24 11:48:01;;;;;;;25.92;8.38;;;9.60;99.90;;;;;;5006524;28;20046;-61
2022/12/24 11:50:36;;;;;;;29.50;7.70;;;9.30;99.90;;;;;;5006065;28;20034;-60
2022/12/24 11:53:02;;;;;;;27.45;6.80;;;9.40;99.90;;;;;;5006801;28;20053;-61
2022/12/24 11:55:47;;;;;;;28.50;7.22;;;9.30;99.90;;;;;;5006283;28;20050;-61
2022/12/24 11:58:37;;;;;;;36.28;8.70;;;9.60;99.90;;;;;;5016560;28;20100;-60
2022/12/24 12:01:20;;;;;;;35.28;11.48;;;9.50;99.90;;;;;;5007916;28;20378;-60
2022/12/24 12:03:50;;;;;;;29.65;9.55;;;9.30;99.90;;;;;;5006013;28;20050;-61
2022/12/24 12:06:35;;;;;;;33.15;8.90;;;9.70;99.90;;;;;;5014348;28;20050;-60
2022/12/24 12:09:20;;;;;;;;;;;9.60;99.90;;;;;;5026432;28;20384;-61
2022/12/24 12:11:52;;;;;;;31.83;7.35;;;9.50;99.90;;;;;;5025873;28;19921;-61
2022/12/24 12:14:27;;;;;;;24.90;6.15;;;9.30;99.90;;;;;;5025776;28;20175;-61
2022/12/24 12:17:00;;;;;;;26.25;6.00;;;9.50;99.90;;;;;;5025066;28;20034;-61
2022/12/24 12:19:40;;;;;;;20.77;4.55;;;9.30;99.90;;;;;;5028938;28;20049;-61
2022/12/24 12:22:20;;;;;;;26.70;4.15;;;9.30;99.90;;;;;;5022370;28;20085;-62
2022/12/24 12:24:49;;;;;;;25.45;4.80;;;9.40;99.90;;;;;;5009320;28;20038;-61
2022/12/24 12:27:27;;;;;;;22.67;4.60;;;9.50;99.90;;;;;;5009120;28;20050;-61
2022/12/24 12:30:11;;;;;;;22.65;5.90;;;9.40;99.90;;;;;;5009356;28;20042;-61
2022/12/24 12:33:01;;;;;;;25.52;6.30;;;9.40;99.90;;;;;;5008817;28;20049;-61
2022/12/24 12:35:35;;;;;;;25.70;8.35;;;9.40;99.90;;;;;;5008891;28;20513;-61
2022/12/24 12:38:07;;;;;;;31.85;9.70;;;9.50;99.90;;;;;;5009034;28;20053;-61
2022/12/24 12:40:56;;;;;;;27.77;7.63;;;9.20;99.90;;;;;;5007647;28;20053;-61
2022/12/24 12:43:50;;;;;;;22.55;5.90;;;9.50;99.90;;;;;;5007025;28;20132;-61
2022/12/24 12:46:40;;;;;;;33.50;8.35;;;9.50;99.90;;;;;;5007994;28;20069;-61
2022/12/24 12:49:47;;;;;;;28.75;8.57;;;9.30;99.90;;;;;;5009625;28;20073;-61
2022/12/24 12:52:40;;;;;;;32.53;8.25;;;9.50;99.90;;;;;;5024323;28;20100;-61
2022/12/24 12:55:30;;;;;;;25.25;5.85;;;9.50;99.90;;;;;;5009299;28;20045;-61
2022/12/24 12:58:18;;;;;;;28.52;5.32;;;9.10;99.90;;;;;;5008055;28;20038;-61
2022/12/24 13:00:48;;;;;;;22.38;4.88;;;9.50;99.90;;;;;;5006485;28;20053;-61
2022/12/24 13:03:42;;;;;;;22.35;4.93;;;9.40;99.90;;;;;;5007541;28;20054;-60
2022/12/24 13:06:29;;;;;;;22.63;4.80;;;9.30;99.90;;;;;;5008777;28;20412;-64